Fawn, Pennsylvania
Current Conditions -  °F | °C
As of 12:53 PM on Sunday 25 Jan 2015 (Local Time) from KTHV Reporting Station
Overcast Overcast  
Wind Chill: 40°   Ceiling: 12000
Heat Index: 40°   Visibility: 10mi
Dew Point: 30°   Wind: 0mph
Humidity: 68%   Direction: NA
Pressure: 29.8"   Gusts: NA
Location:  39.7571°N, 76.4417°W
Report Text: KTHV 251753Z AUTO 00000KT 10SM FEW050 OVC120 04/M01 A2980 RMK AO2 RAB00E09 SLP096 P0000 60000 T00441011 10044 20028 50002
Loading
Personal Weather Stations






























Interactive Weather Map New forecast layout! Learn more

10-Day Weather Forecast

Advertisements
Track Severe Weather on mobile